sensor_id;sensor_type;location;lat;lon;timestamp;temperature;humidity
2973;DHT22;1496;51.404;7.232;2022-07-29T00:00:22;18.50;1.00
2973;DHT22;1496;51.404;7.232;2022-07-29T00:02:48;18.50;1.00
2973;DHT22;1496;51.404;7.232;2022-07-29T00:05:13;18.50;1.00
2973;DHT22;1496;51.404;7.232;2022-07-29T00:07:39;18.50;1.00
2973;DHT22;1496;51.404;7.232;2022-07-29T00:10:06;18.50;1.00
2973;DHT22;1496;51.404;7.232;2022-07-29T00:12:31;18.50;1.00
2973;DHT22;1496;51.404;7.232;2022-07-29T00:14:57;18.50;1.00
2973;DHT22;1496;51.404;7.232;2022-07-29T00:17:25;18.50;1.00
2973;DHT22;1496;51.404;7.232;2022-07-29T00:19:51;18.50;1.00
2973;DHT22;1496;51.404;7.232;2022-07-29T00:22:17;18.50;1.00
2973;DHT22;1496;51.404;7.232;2022-07-29T00:24:42;18.50;1.00
2973;DHT22;1496;51.404;7.232;2022-07-29T00:27:08;18.40;1.00
2973;DHT22;1496;51.404;7.232;2022-07-29T00:29:34;18.40;1.00
2973;DHT22;1496;51.404;7.232;2022-07-29T00:31:59;18.40;1.00
2973;DHT22;1496;51.404;7.232;2022-07-29T00:34:25;18.40;1.00
2973;DHT22;1496;51.404;7.232;2022-07-29T00:37:09;18.40;1.00
2973;DHT22;1496;51.404;7.232;2022-07-29T00:39:35;18.40;1.00
2973;DHT22;1496;51.404;7.232;2022-07-29T00:42:03;18.40;1.00
2973;DHT22;1496;51.404;7.232;2022-07-29T00:44:29;18.30;1.00
2973;DHT22;1496;51.404;7.232;2022-07-29T00:46:54;18.30;1.00
2973;DHT22;1496;51.404;7.232;2022-07-29T00:49:20;18.30;1.00
2973;DHT22;1496;51.404;7.232;2022-07-29T00:51:46;18.30;1.00
2973;DHT22;1496;51.404;7.232;2022-07-29T00:54:13;18.20;1.00
2973;DHT22;1496;51.404;7.232;2022-07-29T00:56:39;18.20;1.00
2973;DHT22;1496;51.404;7.232;2022-07-29T00:59:05;18.20;1.00
2973;DHT22;1496;51.404;7.232;2022-07-29T01:01:30;18.10;1.00
2973;DHT22;1496;51.404;7.232;2022-07-29T01:03:56;18.20;1.00
2973;DHT22;1496;51.404;7.232;2022-07-29T01:06:22;18.20;1.00
2973;DHT22;1496;51.404;7.232;2022-07-29T01:08:49;18.10;1.00
2973;DHT22;1496;51.404;7.232;2022-07-29T01:11:16;18.10;1.00
2973;DHT22;1496;51.404;7.232;2022-07-29T01:13:46;18.10;1.00
2973;DHT22;1496;51.404;7.232;2022-07-29T01:16:21;18.10;1.00
2973;DHT22;1496;51.404;7.232;2022-07-29T01:18:52;18.00;1.00
2973;DHT22;1496;51.404;7.232;2022-07-29T01:21:50;18.00;1.00
2973;DHT22;1496;51.404;7.232;2022-07-29T01:30:17;17.90;1.00
2973;DHT22;1496;51.404;7.232;2022-07-29T01:32:38;17.90;1.00
2973;DHT22;1496;51.404;7.232;2022-07-29T01:35:06;17.90;1.00
2973;DHT22;1496;51.404;7.232;2022-07-29T01:37:50;17.80;1.00
2973;DHT22;1496;51.404;7.232;2022-07-29T01:40:24;17.80;1.00
2973;DHT22;1496;51.404;7.232;2022-07-29T01:42:56;17.80;1.00
2973;DHT22;1496;51.404;7.232;2022-07-29T01:45:43;17.90;1.00
2973;DHT22;1496;51.404;7.232;2022-07-29T01:48:31;17.80;1.00
2973;DHT22;1496;51.404;7.232;2022-07-29T01:51:07;17.80;1.00
2973;DHT22;1496;51.404;7.232;2022-07-29T01:56:19;17.80;1.00
2973;DHT22;1496;51.404;7.232;2022-07-29T01:58:45;17.70;1.00
2973;DHT22;1496;51.404;7.232;2022-07-29T02:01:13;17.70;1.00
2973;DHT22;1496;51.404;7.232;2022-07-29T02:03:43;17.70;1.00
2973;DHT22;1496;51.404;7.232;2022-07-29T02:06:10;17.70;1.00
2973;DHT22;1496;51.404;7.232;2022-07-29T02:08:38;17.70;1.00
2973;DHT22;1496;51.404;7.232;2022-07-29T02:11:05;17.70;1.00
2973;DHT22;1496;51.404;7.232;2022-07-29T02:13:34;17.60;1.00
2973;DHT22;1496;51.404;7.232;2022-07-29T02:19:49;17.60;1.00
2973;DHT22;1496;51.404;7.232;2022-07-29T02:22:16;17.50;1.00
2973;DHT22;1496;51.404;7.232;2022-07-29T02:24:44;17.50;1.00
2973;DHT22;1496;51.404;7.232;2022-07-29T02:27:12;17.40;1.00
2973;DHT22;1496;51.404;7.232;2022-07-29T02:29:39;17.30;1.00
2973;DHT22;1496;51.404;7.232;2022-07-29T02:32:06;17.30;1.00
2973;DHT22;1496;51.404;7.232;2022-07-29T02:34:33;17.20;1.00
2973;DHT22;1496;51.404;7.232;2022-07-29T02:36:59;17.20;1.00
2973;DHT22;1496;51.404;7.232;2022-07-29T02:39:27;17.30;1.00
2973;DHT22;1496;51.404;7.232;2022-07-29T02:42:23;17.20;1.00
2973;DHT22;1496;51.404;7.232;2022-07-29T02:45:34;17.30;1.00
2973;DHT22;1496;51.404;7.232;2022-07-29T02:48:03;17.30;1.00
2973;DHT22;1496;51.404;7.232;2022-07-29T02:50:34;17.40;1.00
2973;DHT22;1496;51.404;7.232;2022-07-29T02:53:22;17.40;1.00
2973;DHT22;1496;51.404;7.232;2022-07-29T02:55:55;17.40;1.00
2973;DHT22;1496;51.404;7.232;2022-07-29T02:58:27;17.40;1.00
2973;DHT22;1496;51.404;7.232;2022-07-29T03:00:57;17.40;1.00
2973;DHT22;1496;51.404;7.232;2022-07-29T03:03:31;17.50;1.00
2973;DHT22;1496;51.404;7.232;2022-07-29T03:05:59;17.50;1.00
2973;DHT22;1496;51.404;7.232;2022-07-29T03:08:27;17.50;1.00
2973;DHT22;1496;51.404;7.232;2022-07-29T03:10:53;17.40;1.00
2973;DHT22;1496;51.404;7.232;2022-07-29T03:13:20;17.40;1.00
2973;DHT22;1496;51.404;7.232;2022-07-29T03:15:46;17.40;1.00
2973;DHT22;1496;51.404;7.232;2022-07-29T03:18:12;17.40;1.00
2973;DHT22;1496;51.404;7.232;2022-07-29T03:20:42;17.40;1.00
2973;DHT22;1496;51.404;7.232;2022-07-29T03:23:09;17.40;1.00
2973;DHT22;1496;51.404;7.232;2022-07-29T03:25:35;17.30;1.00
2973;DHT22;1496;51.404;7.232;2022-07-29T03:28:01;17.40;1.00
2973;DHT22;1496;51.404;7.232;2022-07-29T03:30:29;17.30;1.00
2973;DHT22;1496;51.404;7.232;2022-07-29T03:32:56;17.40;1.00
2973;DHT22;1496;51.404;7.232;2022-07-29T03:35:22;17.30;1.00
2973;DHT22;1496;51.404;7.232;2022-07-29T03:37:48;17.30;1.00
2973;DHT22;1496;51.404;7.232;2022-07-29T03:40:19;17.40;1.00
2973;DHT22;1496;51.404;7.232;2022-07-29T03:42:49;17.30;1.00
2973;DHT22;1496;51.404;7.232;2022-07-29T03:45:17;17.30;1.00
2973;DHT22;1496;51.404;7.232;2022-07-29T03:47:51;17.20;1.00
2973;DHT22;1496;51.404;7.232;2022-07-29T03:50:18;17.10;1.00
2973;DHT22;1496;51.404;7.232;2022-07-29T03:52:46;17.10;1.00
2973;DHT22;1496;51.404;7.232;2022-07-29T03:55:12;17.00;1.00
2973;DHT22;1496;51.404;7.232;2022-07-29T03:57:39;17.10;1.00
2973;DHT22;1496;51.404;7.232;2022-07-29T04:00:06;17.10;1.00
2973;DHT22;1496;51.404;7.232;2022-07-29T04:02:33;17.10;1.00
2973;DHT22;1496;51.404;7.232;2022-07-29T04:04:59;17.00;1.00
2973;DHT22;1496;51.404;7.232;2022-07-29T04:07:25;17.00;1.00
2973;DHT22;1496;51.404;7.232;2022-07-29T04:09:50;17.00;1.00
2973;DHT22;1496;51.404;7.232;2022-07-29T04:12:16;17.10;1.00
2973;DHT22;1496;51.404;7.232;2022-07-29T04:14:41;17.10;1.00
2973;DHT22;1496;51.404;7.232;2022-07-29T04:17:07;17.10;1.00
2973;DHT22;1496;51.404;7.232;2022-07-29T04:19:33;17.00;1.00
2973;DHT22;1496;51.404;7.232;2022-07-29T04:21:59;17.10;1.00
2973;DHT22;1496;51.404;7.232;2022-07-29T04:24:25;17.10;1.00
2973;DHT22;1496;51.404;7.232;2022-07-29T04:26:51;17.00;1.00
2973;DHT22;1496;51.404;7.232;2022-07-29T04:29:17;17.00;1.00
2973;DHT22;1496;51.404;7.232;2022-07-29T04:31:43;17.00;1.00
2973;DHT22;1496;51.404;7.232;2022-07-29T04:34:09;17.00;1.00
2973;DHT22;1496;51.404;7.232;2022-07-29T04:36:34;17.00;1.00
2973;DHT22;1496;51.404;7.232;2022-07-29T04:39:00;17.00;1.00
2973;DHT22;1496;51.404;7.232;2022-07-29T04:41:30;17.00;1.00
2973;DHT22;1496;51.404;7.232;2022-07-29T04:43:56;17.00;1.00
2973;DHT22;1496;51.404;7.232;2022-07-29T04:46:22;16.90;1.00
2973;DHT22;1496;51.404;7.232;2022-07-29T04:48:48;16.90;1.00
2973;DHT22;1496;51.404;7.232;2022-07-29T04:51:16;16.90;1.00
2973;DHT22;1496;51.404;7.232;2022-07-29T04:53:42;16.90;1.00
2973;DHT22;1496;51.404;7.232;2022-07-29T04:56:08;16.90;1.00
2973;DHT22;1496;51.404;7.232;2022-07-29T04:58:34;17.00;1.00
2973;DHT22;1496;51.404;7.232;2022-07-29T05:01:00;17.00;1.00
2973;DHT22;1496;51.404;7.232;2022-07-29T05:03:26;17.00;1.00
2973;DHT22;1496;51.404;7.232;2022-07-29T05:05:52;16.90;1.00
2973;DHT22;1496;51.404;7.232;2022-07-29T05:08:17;17.00;1.00
2973;DHT22;1496;51.404;7.232;2022-07-29T05:10:43;17.10;1.00
2973;DHT22;1496;51.404;7.232;2022-07-29T05:13:27;17.10;1.00
2973;DHT22;1496;51.404;7.232;2022-07-29T05:15:53;17.10;1.00
2973;DHT22;1496;51.404;7.232;2022-07-29T05:18:18;17.00;1.00
2973;DHT22;1496;51.404;7.232;2022-07-29T05:20:44;16.90;1.00
2973;DHT22;1496;51.404;7.232;2022-07-29T05:23:10;16.90;1.00
2973;DHT22;1496;51.404;7.232;2022-07-29T05:25:38;17.00;1.00
2973;DHT22;1496;51.404;7.232;2022-07-29T05:28:04;16.90;1.00
2973;DHT22;1496;51.404;7.232;2022-07-29T05:30:30;17.00;1.00
2973;DHT22;1496;51.404;7.232;2022-07-29T05:32:55;17.00;1.00
2973;DHT22;1496;51.404;7.232;2022-07-29T05:35:21;17.10;1.00
2973;DHT22;1496;51.404;7.232;2022-07-29T05:37:47;17.00;1.00
2973;DHT22;1496;51.404;7.232;2022-07-29T05:40:12;17.10;1.00
2973;DHT22;1496;51.404;7.232;2022-07-29T05:42:38;17.20;1.00
2973;DHT22;1496;51.404;7.232;2022-07-29T05:45:04;17.10;1.00
2973;DHT22;1496;51.404;7.232;2022-07-29T05:47:30;17.10;1.00
2973;DHT22;1496;51.404;7.232;2022-07-29T05:49:56;17.00;1.00
2973;DHT22;1496;51.404;7.232;2022-07-29T05:52:22;17.00;1.00
2973;DHT22;1496;51.404;7.232;2022-07-29T05:54:48;17.00;1.00
2973;DHT22;1496;51.404;7.232;2022-07-29T05:57:18;17.10;1.00
2973;DHT22;1496;51.404;7.232;2022-07-29T05:59:44;17.10;1.00
2973;DHT22;1496;51.404;7.232;2022-07-29T06:02:10;17.20;1.00
2973;DHT22;1496;51.404;7.232;2022-07-29T06:04:36;17.30;1.00
2973;DHT22;1496;51.404;7.232;2022-07-29T06:07:02;17.30;1.00
2973;DHT22;1496;51.404;7.232;2022-07-29T06:09:28;17.40;1.00
2973;DHT22;1496;51.404;7.232;2022-07-29T06:12:03;17.40;1.00
2973;DHT22;1496;51.404;7.232;2022-07-29T06:14:29;17.40;1.00
2973;DHT22;1496;51.404;7.232;2022-07-29T06:16:55;17.40;1.00
2973;DHT22;1496;51.404;7.232;2022-07-29T06:19:21;17.30;1.00
2973;DHT22;1496;51.404;7.232;2022-07-29T06:21:47;17.40;1.00
2973;DHT22;1496;51.404;7.232;2022-07-29T06:24:14;17.40;1.00
2973;DHT22;1496;51.404;7.232;2022-07-29T06:26:40;17.40;1.00
2973;DHT22;1496;51.404;7.232;2022-07-29T06:29:06;17.30;1.00
2973;DHT22;1496;51.404;7.232;2022-07-29T06:31:32;17.30;1.00
2973;DHT22;1496;51.404;7.232;2022-07-29T06:33:58;17.20;1.00
2973;DHT22;1496;51.404;7.232;2022-07-29T06:36:24;17.30;1.00
2973;DHT22;1496;51.404;7.232;2022-07-29T06:38:49;17.30;1.00
2973;DHT22;1496;51.404;7.232;2022-07-29T06:41:15;17.30;1.00
2973;DHT22;1496;51.404;7.232;2022-07-29T06:43:42;17.30;1.00
2973;DHT22;1496;51.404;7.232;2022-07-29T06:46:11;17.20;1.00
2973;DHT22;1496;51.404;7.232;2022-07-29T06:48:38;17.10;1.00
2973;DHT22;1496;51.404;7.232;2022-07-29T06:51:05;17.10;1.00
2973;DHT22;1496;51.404;7.232;2022-07-29T06:53:32;17.20;1.00
2973;DHT22;1496;51.404;7.232;2022-07-29T06:55:59;17.20;1.00
2973;DHT22;1496;51.404;7.232;2022-07-29T06:58:32;17.20;1.00
2973;DHT22;1496;51.404;7.232;2022-07-29T07:01:01;17.20;1.00
2973;DHT22;1496;51.404;7.232;2022-07-29T07:03:28;17.20;1.00
2973;DHT22;1496;51.404;7.232;2022-07-29T07:05:54;17.20;1.00
2973;DHT22;1496;51.404;7.232;2022-07-29T07:08:20;17.20;1.00
2973;DHT22;1496;51.404;7.232;2022-07-29T07:10:47;17.30;1.00
2973;DHT22;1496;51.404;7.232;2022-07-29T07:13:13;17.30;1.00
2973;DHT22;1496;51.404;7.232;2022-07-29T07:15:40;17.40;1.00
2973;DHT22;1496;51.404;7.232;2022-07-29T07:18:06;17.60;1.00
2973;DHT22;1496;51.404;7.232;2022-07-29T07:20:33;17.70;1.00
2973;DHT22;1496;51.404;7.232;2022-07-29T07:23:00;17.80;1.00
2973;DHT22;1496;51.404;7.232;2022-07-29T07:25:31;17.90;1.00
2973;DHT22;1496;51.404;7.232;2022-07-29T07:27:57;18.10;1.00
2973;DHT22;1496;51.404;7.232;2022-07-29T07:30:23;18.10;1.00
2973;DHT22;1496;51.404;7.232;2022-07-29T07:32:48;18.20;1.00
2973;DHT22;1496;51.404;7.232;2022-07-29T07:35:14;18.20;1.00
2973;DHT22;1496;51.404;7.232;2022-07-29T07:37:40;18.10;1.00
2973;DHT22;1496;51.404;7.232;2022-07-29T07:40:07;18.10;1.00
2973;DHT22;1496;51.404;7.232;2022-07-29T07:42:34;18.20;1.00
2973;DHT22;1496;51.404;7.232;2022-07-29T07:44:59;18.10;1.00
2973;DHT22;1496;51.404;7.232;2022-07-29T07:47:26;18.10;1.00
2973;DHT22;1496;51.404;7.232;2022-07-29T07:49:52;18.10;1.00
2973;DHT22;1496;51.404;7.232;2022-07-29T07:52:20;18.20;1.00
2973;DHT22;1496;51.404;7.232;2022-07-29T07:54:46;18.20;1.00
2973;DHT22;1496;51.404;7.232;2022-07-29T07:57:12;18.20;1.00
2973;DHT22;1496;51.404;7.232;2022-07-29T07:59:38;18.20;1.00
2973;DHT22;1496;51.404;7.232;2022-07-29T08:02:04;18.20;1.00
2973;DHT22;1496;51.404;7.232;2022-07-29T08:04:30;18.20;1.00
2973;DHT22;1496;51.404;7.232;2022-07-29T08:06:56;18.30;1.00
2973;DHT22;1496;51.404;7.232;2022-07-29T08:09:29;18.30;1.00
2973;DHT22;1496;51.404;7.232;2022-07-29T08:11:56;18.40;1.00
2973;DHT22;1496;51.404;7.232;2022-07-29T08:15:07;18.40;1.00
2973;DHT22;1496;51.404;7.232;2022-07-29T08:17:33;18.60;1.00
2973;DHT22;1496;51.404;7.232;2022-07-29T08:19:59;18.70;1.00
2973;DHT22;1496;51.404;7.232;2022-07-29T08:22:24;18.70;1.00
2973;DHT22;1496;51.404;7.232;2022-07-29T08:24:50;18.80;1.00
2973;DHT22;1496;51.404;7.232;2022-07-29T08:27:22;18.70;1.00
2973;DHT22;1496;51.404;7.232;2022-07-29T08:29:48;18.80;1.00
2973;DHT22;1496;51.404;7.232;2022-07-29T08:32:14;18.90;1.00
2973;DHT22;1496;51.404;7.232;2022-07-29T08:34:42;18.90;1.00
2973;DHT22;1496;51.404;7.232;2022-07-29T08:37:11;18.90;1.00
2973;DHT22;1496;51.404;7.232;2022-07-29T08:39:37;18.80;1.00
2973;DHT22;1496;51.404;7.232;2022-07-29T08:42:02;18.80;1.00
2973;DHT22;1496;51.404;7.232;2022-07-29T08:44:28;18.70;1.00
2973;DHT22;1496;51.404;7.232;2022-07-29T08:46:54;18.70;1.00
2973;DHT22;1496;51.404;7.232;2022-07-29T08:49:20;18.70;1.00
2973;DHT22;1496;51.404;7.232;2022-07-29T08:51:46;18.70;1.00
2973;DHT22;1496;51.404;7.232;2022-07-29T08:54:16;18.70;1.00
2973;DHT22;1496;51.404;7.232;2022-07-29T08:56:42;18.80;1.00
2973;DHT22;1496;51.404;7.232;2022-07-29T08:59:08;18.80;1.00
2973;DHT22;1496;51.404;7.232;2022-07-29T09:01:37;18.80;1.00
2973;DHT22;1496;51.404;7.232;2022-07-29T09:04:07;18.90;1.00
2973;DHT22;1496;51.404;7.232;2022-07-29T09:06:37;18.90;1.00
2973;DHT22;1496;51.404;7.232;2022-07-29T09:09:04;18.90;1.00
2973;DHT22;1496;51.404;7.232;2022-07-29T09:11:32;18.90;1.00
2973;DHT22;1496;51.404;7.232;2022-07-29T09:13:57;18.90;1.00
2973;DHT22;1496;51.404;7.232;2022-07-29T09:16:23;18.90;1.00
2973;DHT22;1496;51.404;7.232;2022-07-29T09:18:49;18.90;1.00
2973;DHT22;1496;51.404;7.232;2022-07-29T09:21:16;19.00;1.00
2973;DHT22;1496;51.404;7.232;2022-07-29T09:24:12;19.10;1.00
2973;DHT22;1496;51.404;7.232;2022-07-29T09:26:43;19.10;1.00
2973;DHT22;1496;51.404;7.232;2022-07-29T09:29:11;19.30;1.00
2973;DHT22;1496;51.404;7.232;2022-07-29T09:31:40;19.20;1.00
2973;DHT22;1496;51.404;7.232;2022-07-29T09:34:07;19.20;1.00
2973;DHT22;1496;51.404;7.232;2022-07-29T09:36:47;19.20;1.00
2973;DHT22;1496;51.404;7.232;2022-07-29T09:39:15;19.20;1.00
2973;DHT22;1496;51.404;7.232;2022-07-29T09:41:48;19.10;1.00
2973;DHT22;1496;51.404;7.232;2022-07-29T09:44:14;19.00;1.00
2973;DHT22;1496;51.404;7.232;2022-07-29T09:46:52;18.90;1.00
2973;DHT22;1496;51.404;7.232;2022-07-29T09:49:17;18.90;1.00
2973;DHT22;1496;51.404;7.232;2022-07-29T09:51:43;18.90;1.00
2973;DHT22;1496;51.404;7.232;2022-07-29T09:56:47;18.80;1.00
2973;DHT22;1496;51.404;7.232;2022-07-29T09:59:13;18.80;1.00
2973;DHT22;1496;51.404;7.232;2022-07-29T10:01:39;18.70;1.00
2973;DHT22;1496;51.404;7.232;2022-07-29T10:04:05;18.80;1.00
2973;DHT22;1496;51.404;7.232;2022-07-29T10:06:31;18.70;1.00
2973;DHT22;1496;51.404;7.232;2022-07-29T10:09:10;18.80;1.00
2973;DHT22;1496;51.404;7.232;2022-07-29T10:11:36;18.80;1.00
2973;DHT22;1496;51.404;7.232;2022-07-29T10:14:03;18.80;1.00
2973;DHT22;1496;51.404;7.232;2022-07-29T10:16:29;18.70;1.00
2973;DHT22;1496;51.404;7.232;2022-07-29T10:19:00;18.70;1.00
2973;DHT22;1496;51.404;7.232;2022-07-29T10:21:30;18.70;1.00
2973;DHT22;1496;51.404;7.232;2022-07-29T10:24:19;18.70;1.00
2973;DHT22;1496;51.404;7.232;2022-07-29T10:26:46;18.70;1.00
2973;DHT22;1496;51.404;7.232;2022-07-29T10:29:13;18.70;1.00
2973;DHT22;1496;51.404;7.232;2022-07-29T10:37:42;18.70;1.00
2973;DHT22;1496;51.404;7.232;2022-07-29T10:43:29;18.80;1.00
2973;DHT22;1496;51.404;7.232;2022-07-29T10:45:59;18.80;1.00
2973;DHT22;1496;51.404;7.232;2022-07-29T10:48:26;18.80;1.00
2973;DHT22;1496;51.404;7.232;2022-07-29T10:51:03;18.90;1.00
2973;DHT22;1496;51.404;7.232;2022-07-29T10:53:49;18.80;1.00
2973;DHT22;1496;51.404;7.232;2022-07-29T10:56:26;18.80;1.00
2973;DHT22;1496;51.404;7.232;2022-07-29T11:01:44;18.60;1.00
2973;DHT22;1496;51.404;7.232;2022-07-29T11:04:09;18.70;1.00
2973;DHT22;1496;51.404;7.232;2022-07-29T11:09:26;18.70;1.00
2973;DHT22;1496;51.404;7.232;2022-07-29T11:11:52;18.60;1.00
2973;DHT22;1496;51.404;7.232;2022-07-29T11:14:58;18.70;1.00
2973;DHT22;1496;51.404;7.232;2022-07-29T11:17:24;18.70;1.00
2973;DHT22;1496;51.404;7.232;2022-07-29T11:19:50;18.70;1.00
2973;DHT22;1496;51.404;7.232;2022-07-29T11:22:35;18.70;1.00
2973;DHT22;1496;51.404;7.232;2022-07-29T11:25:15;18.80;1.00
2973;DHT22;1496;51.404;7.232;2022-07-29T11:27:41;18.80;1.00
2973;DHT22;1496;51.404;7.232;2022-07-29T11:30:08;18.70;1.00
2973;DHT22;1496;51.404;7.232;2022-07-29T11:32:39;18.80;1.00
2973;DHT22;1496;51.404;7.232;2022-07-29T11:37:39;18.80;1.00
2973;DHT22;1496;51.404;7.232;2022-07-29T11:45:02;18.80;1.00
2973;DHT22;1496;51.404;7.232;2022-07-29T11:47:33;18.80;1.00
2973;DHT22;1496;51.404;7.232;2022-07-29T11:50:00;18.90;1.00
2973;DHT22;1496;51.404;7.232;2022-07-29T11:52:41;19.00;1.00
2973;DHT22;1496;51.404;7.232;2022-07-29T11:55:15;19.20;1.00
2973;DHT22;1496;51.404;7.232;2022-07-29T11:57:51;19.60;1.00
2973;DHT22;1496;51.404;7.232;2022-07-29T12:02:55;20.00;1.00
2973;DHT22;1496;51.404;7.232;2022-07-29T12:05:29;20.10;1.00
2973;DHT22;1496;51.404;7.232;2022-07-29T12:07:58;20.10;1.00
2973;DHT22;1496;51.404;7.232;2022-07-29T12:10:32;20.10;1.00
2973;DHT22;1496;51.404;7.232;2022-07-29T12:12:58;20.10;1.00
2973;DHT22;1496;51.404;7.232;2022-07-29T12:15:23;20.10;1.00
2973;DHT22;1496;51.404;7.232;2022-07-29T12:17:51;20.10;1.00
2973;DHT22;1496;51.404;7.232;2022-07-29T12:20:26;20.00;1.00
2973;DHT22;1496;51.404;7.232;2022-07-29T12:22:52;20.20;1.00
2973;DHT22;1496;51.404;7.232;2022-07-29T12:25:19;20.30;1.00
2973;DHT22;1496;51.404;7.232;2022-07-29T12:27:45;20.40;1.00
2973;DHT22;1496;51.404;7.232;2022-07-29T12:30:18;20.40;1.00
2973;DHT22;1496;51.404;7.232;2022-07-29T12:33:13;20.50;1.00
2973;DHT22;1496;51.404;7.232;2022-07-29T12:35:39;20.60;1.00
2973;DHT22;1496;51.404;7.232;2022-07-29T12:38:05;20.70;1.00
2973;DHT22;1496;51.404;7.232;2022-07-29T12:40:31;20.80;1.00
2973;DHT22;1496;51.404;7.232;2022-07-29T12:43:09;20.80;1.00
2973;DHT22;1496;51.404;7.232;2022-07-29T12:45:41;20.90;1.00
2973;DHT22;1496;51.404;7.232;2022-07-29T12:48:07;20.90;1.00
2973;DHT22;1496;51.404;7.232;2022-07-29T12:50:58;21.10;1.00
2973;DHT22;1496;51.404;7.232;2022-07-29T12:53:25;21.30;1.00
2973;DHT22;1496;51.404;7.232;2022-07-29T12:55:53;21.30;1.00
2973;DHT22;1496;51.404;7.232;2022-07-29T12:58:34;21.50;1.00
2973;DHT22;1496;51.404;7.232;2022-07-29T13:03:27;21.50;1.00
2973;DHT22;1496;51.404;7.232;2022-07-29T13:05:53;21.50;1.00
2973;DHT22;1496;51.404;7.232;2022-07-29T13:08:18;21.50;1.00
2973;DHT22;1496;51.404;7.232;2022-07-29T13:10:45;21.60;1.00
2973;DHT22;1496;51.404;7.232;2022-07-29T13:13:13;21.80;1.00
2973;DHT22;1496;51.404;7.232;2022-07-29T13:15:44;21.90;1.00
2973;DHT22;1496;51.404;7.232;2022-07-29T13:18:28;22.00;1.00
2973;DHT22;1496;51.404;7.232;2022-07-29T13:20:55;22.00;1.00
2973;DHT22;1496;51.404;7.232;2022-07-29T13:23:21;21.80;1.00
2973;DHT22;1496;51.404;7.232;2022-07-29T13:25:46;21.90;1.00
2973;DHT22;1496;51.404;7.232;2022-07-29T13:28:12;21.90;1.00
2973;DHT22;1496;51.404;7.232;2022-07-29T13:30:39;21.90;1.00
2973;DHT22;1496;51.404;7.232;2022-07-29T13:33:06;21.90;1.00
2973;DHT22;1496;51.404;7.232;2022-07-29T13:35:32;22.10;1.00
2973;DHT22;1496;51.404;7.232;2022-07-29T13:37:58;22.40;1.00
2973;DHT22;1496;51.404;7.232;2022-07-29T13:40:23;22.60;1.00
2973;DHT22;1496;51.404;7.232;2022-07-29T13:42:49;22.60;1.00
2973;DHT22;1496;51.404;7.232;2022-07-29T13:45:16;22.70;1.00
2973;DHT22;1496;51.404;7.232;2022-07-29T13:47:41;22.70;1.00
2973;DHT22;1496;51.404;7.232;2022-07-29T13:50:08;22.60;1.00
2973;DHT22;1496;51.404;7.232;2022-07-29T13:52:35;22.60;1.00
2973;DHT22;1496;51.404;7.232;2022-07-29T13:55:02;22.50;1.00
2973;DHT22;1496;51.404;7.232;2022-07-29T13:57:27;22.30;1.00
2973;DHT22;1496;51.404;7.232;2022-07-29T13:59:53;22.40;1.00
2973;DHT22;1496;51.404;7.232;2022-07-29T14:02:19;22.60;1.00
2973;DHT22;1496;51.404;7.232;2022-07-29T14:04:44;22.70;1.00
2973;DHT22;1496;51.404;7.232;2022-07-29T14:07:10;22.50;1.00
2973;DHT22;1496;51.404;7.232;2022-07-29T14:09:36;22.40;1.00
2973;DHT22;1496;51.404;7.232;2022-07-29T14:12:02;22.40;1.00
2973;DHT22;1496;51.404;7.232;2022-07-29T14:14:28;22.50;1.00
2973;DHT22;1496;51.404;7.232;2022-07-29T14:16:54;22.60;1.00
2973;DHT22;1496;51.404;7.232;2022-07-29T14:19:20;22.60;1.00
2973;DHT22;1496;51.404;7.232;2022-07-29T14:21:46;22.60;1.00
2973;DHT22;1496;51.404;7.232;2022-07-29T14:24:11;22.60;1.00
2973;DHT22;1496;51.404;7.232;2022-07-29T14:26:37;22.70;1.00
2973;DHT22;1496;51.404;7.232;2022-07-29T14:29:03;22.70;1.00
2973;DHT22;1496;51.404;7.232;2022-07-29T14:31:28;22.80;1.00
2973;DHT22;1496;51.404;7.232;2022-07-29T14:33:55;22.80;1.00
2973;DHT22;1496;51.404;7.232;2022-07-29T14:36:21;22.90;1.00
2973;DHT22;1496;51.404;7.232;2022-07-29T14:38:46;22.90;1.00
2973;DHT22;1496;51.404;7.232;2022-07-29T14:41:12;22.90;1.00
2973;DHT22;1496;51.404;7.232;2022-07-29T14:43:38;23.00;1.00
2973;DHT22;1496;51.404;7.232;2022-07-29T14:46:04;23.00;1.00
2973;DHT22;1496;51.404;7.232;2022-07-29T14:48:29;23.00;1.00
2973;DHT22;1496;51.404;7.232;2022-07-29T14:50:55;23.10;1.00
2973;DHT22;1496;51.404;7.232;2022-07-29T14:53:22;23.20;1.00
2973;DHT22;1496;51.404;7.232;2022-07-29T14:55:47;23.20;1.00
2973;DHT22;1496;51.404;7.232;2022-07-29T14:58:13;23.30;1.00
2973;DHT22;1496;51.404;7.232;2022-07-29T15:00:39;23.20;1.00
2973;DHT22;1496;51.404;7.232;2022-07-29T15:03:05;23.30;1.00
2973;DHT22;1496;51.404;7.232;2022-07-29T15:05:31;23.10;1.00
2973;DHT22;1496;51.404;7.232;2022-07-29T15:08:00;23.00;1.00
2973;DHT22;1496;51.404;7.232;2022-07-29T15:10:26;23.00;1.00
2973;DHT22;1496;51.404;7.232;2022-07-29T15:12:53;23.00;1.00
2973;DHT22;1496;51.404;7.232;2022-07-29T15:15:18;23.00;1.00
2973;DHT22;1496;51.404;7.232;2022-07-29T15:17:44;23.00;1.00
2973;DHT22;1496;51.404;7.232;2022-07-29T15:20:11;22.90;1.00
2973;DHT22;1496;51.404;7.232;2022-07-29T15:22:37;22.90;1.00
2973;DHT22;1496;51.404;7.232;2022-07-29T15:25:04;22.90;1.00
2973;DHT22;1496;51.404;7.232;2022-07-29T15:27:30;22.90;1.00
2973;DHT22;1496;51.404;7.232;2022-07-29T15:29:56;23.00;1.00
2973;DHT22;1496;51.404;7.232;2022-07-29T15:32:31;23.00;1.00
2973;DHT22;1496;51.404;7.232;2022-07-29T15:35:00;23.10;1.00
2973;DHT22;1496;51.404;7.232;2022-07-29T15:37:51;23.10;1.00
2973;DHT22;1496;51.404;7.232;2022-07-29T15:40:17;23.10;1.00
2973;DHT22;1496;51.404;7.232;2022-07-29T15:42:43;23.10;1.00
2973;DHT22;1496;51.404;7.232;2022-07-29T15:45:09;23.10;1.00
2973;DHT22;1496;51.404;7.232;2022-07-29T15:47:35;23.10;1.00
2973;DHT22;1496;51.404;7.232;2022-07-29T15:50:01;23.20;1.00
2973;DHT22;1496;51.404;7.232;2022-07-29T15:52:27;23.20;1.00
2973;DHT22;1496;51.404;7.232;2022-07-29T15:54:55;23.20;1.00
2973;DHT22;1496;51.404;7.232;2022-07-29T15:57:21;23.10;1.00
2973;DHT22;1496;51.404;7.232;2022-07-29T15:59:47;23.10;1.00
2973;DHT22;1496;51.404;7.232;2022-07-29T16:02:13;23.20;1.00
2973;DHT22;1496;51.404;7.232;2022-07-29T16:04:39;23.40;1.00
2973;DHT22;1496;51.404;7.232;2022-07-29T16:07:04;23.50;1.00
2973;DHT22;1496;51.404;7.232;2022-07-29T16:09:30;23.30;1.00
2973;DHT22;1496;51.404;7.232;2022-07-29T16:11:56;23.20;1.00
2973;DHT22;1496;51.404;7.232;2022-07-29T16:14:22;23.20;1.00
2973;DHT22;1496;51.404;7.232;2022-07-29T16:16:47;23.10;1.00
2973;DHT22;1496;51.404;7.232;2022-07-29T16:19:13;23.10;1.00
2973;DHT22;1496;51.404;7.232;2022-07-29T16:21:39;23.00;1.00
2973;DHT22;1496;51.404;7.232;2022-07-29T16:24:06;22.90;1.00
2973;DHT22;1496;51.404;7.232;2022-07-29T16:26:33;22.90;1.00
2973;DHT22;1496;51.404;7.232;2022-07-29T16:28:58;22.80;1.00
2973;DHT22;1496;51.404;7.232;2022-07-29T16:31:25;22.80;1.00
2973;DHT22;1496;51.404;7.232;2022-07-29T16:33:51;22.70;1.00
2973;DHT22;1496;51.404;7.232;2022-07-29T16:36:18;22.70;1.00
2973;DHT22;1496;51.404;7.232;2022-07-29T16:38:44;22.80;1.00
2973;DHT22;1496;51.404;7.232;2022-07-29T16:41:10;22.80;1.00
2973;DHT22;1496;51.404;7.232;2022-07-29T16:43:35;22.80;1.00
2973;DHT22;1496;51.404;7.232;2022-07-29T16:46:01;22.90;1.00
2973;DHT22;1496;51.404;7.232;2022-07-29T16:48:27;22.90;1.00
2973;DHT22;1496;51.404;7.232;2022-07-29T16:54:22;22.80;1.00
2973;DHT22;1496;51.404;7.232;2022-07-29T16:56:48;22.70;1.00
2973;DHT22;1496;51.404;7.232;2022-07-29T16:59:13;22.60;1.00
2973;DHT22;1496;51.404;7.232;2022-07-29T17:01:39;22.60;1.00
2973;DHT22;1496;51.404;7.232;2022-07-29T17:04:05;22.50;1.00
2973;DHT22;1496;51.404;7.232;2022-07-29T17:07:17;22.60;1.00
2973;DHT22;1496;51.404;7.232;2022-07-29T17:09:30;22.50;1.00